الصفحة الرئيسية
METAR-TAF:

METAR-TAF

مطار :

مطار باكسي الدولي

باكسي, لاوس

دائرة عرض: 15-08-02N, خط طول: 105-46-55E, ارتفاع: 107 متر

مراقبة الطقس الحالي

تاريخ ووقت الإصدار 11ساعات و 10 دقيقة قبل الساعة 12:00UTC
ريح 8 عقدة من الشمال الغربي
درجة الحرارة 33°درجة مئوية
الرطوبة 56%
ضغط 1005 hPa
الرؤية: 8000 متر
غيوم قليلة على ارتفاع 3000 قدم
غيوم متفرقة على ارتفاع 5000 قدم

METAR: VLPS 181200Z 32008KT 8000 FEW030 SCT050 33/23 Q1005 NOSIG

زمن: 06:10 (23:10 UTC)

توقعات

تاريخ ووقت الإصدار 6ساعات و 10 دقيقة قبل الساعة 17:00UTC
التوقعات صالحة من18 الساعة 18 UTC إلى 19 الساعة 18 UTC
ريح 6 عقدة من الجنوب
الرؤية: 4000 متر
غيوم متفرقة على ارتفاع 2000 قدم
غيوم متفرقة على ارتفاع 20000 قدم
غشاء,

TAF: VLPS 181700Z 1818/1918 18006KT 4000 BR SCT020 SCT200

أرصاد الطقس والتوقعات من أكثر من 4000 مطار (تقارير الطقس للمطار METAR والتنبؤ بالطقس بالمطارTAF).

المحطات المتاحة هي النقط الصفراء والحمراء على الخريطة.

حرك المؤشر فوق النقطة لمعرفة اسم المحطة.

ثم انقر لمعرفة أرصاد وتوقعات الطقس.

لتغيير الخارطة: اضغط على الأزرار الخضراء مع رمز الصليب الأسود للتكبير. على الزر الأخضر مع شرطة للتصغير، أو على الأسهم الخضراء للخرائط المجاورة.


METAR-TAF: